Time,TemperatureF,DewpointF,PressureIn,WindDirection,WindDirectionDegrees,WindSpeedMPH,WindSpeedGustMPH,Humidity,HourlyPrecipIn,Conditions,Clouds,dailyrainin,SoftwareType,DateUTC
2016-09-28 00:02:00,55.3,39.0,29.93,SSW,212,1.0,4.0,55,0.00,,,0.00,weatherlink.com 1.10,2016-09-27 14:02:00,
2016-09-28 00:16:00,54.8,40.0,29.93,SSW,212,0.0,1.0,58,0.00,,,0.00,weatherlink.com 1.10,2016-09-27 14:16:00,
2016-09-28 00:31:00,54.5,39.0,29.93,SSW,211,3.0,6.0,56,0.00,,,0.00,weatherlink.com 1.10,2016-09-27 14:31:00,
2016-09-28 00:46:00,54.7,39.0,29.92,South,180,3.0,5.0,55,0.00,,,0.00,weatherlink.com 1.10,2016-09-27 14:46:00,
2016-09-28 01:02:00,54.2,39.0,29.92,SSW,207,0.0,4.0,56,0.00,,,0.00,weatherlink.com 1.10,2016-09-27 15:02:00,
2016-09-28 01:17:00,54.0,40.0,29.92,WSW,240,3.0,3.0,59,0.00,,,0.00,weatherlink.com 1.10,2016-09-27 15:17:00,
2016-09-28 01:32:00,53.4,40.0,29.92,WSW,244,2.0,3.0,60,0.00,,,0.00,weatherlink.com 1.10,2016-09-27 15:32:00,
2016-09-28 01:47:00,53.3,40.0,29.92,SW,224,2.0,4.0,62,0.00,,,0.00,weatherlink.com 1.10,2016-09-27 15:47:00,
2016-09-28 02:02:00,53.1,41.0,29.92,SSW,206,0.0,3.0,63,0.00,,,0.00,weatherlink.com 1.10,2016-09-27 16:02:00,
2016-09-28 02:17:00,52.9,39.0,29.92,SE,140,1.0,4.0,59,0.00,,,0.00,weatherlink.com 1.10,2016-09-27 16:17:00,
2016-09-28 02:32:00,52.8,39.0,29.92,SW,232,0.0,4.0,61,0.00,,,0.00,weatherlink.com 1.10,2016-09-27 16:32:00,
2016-09-28 02:47:00,52.3,41.0,29.92,West,279,1.0,4.0,65,0.00,,,0.00,weatherlink.com 1.10,2016-09-27 16:47:00,
2016-09-28 03:17:00,52.1,41.0,29.92,West,279,3.0,4.0,65,0.00,,,0.00,weatherlink.com 1.10,2016-09-27 17:17:00,
2016-09-28 03:32:00,51.1,40.0,29.93,WNW,298,1.0,4.0,65,0.00,,,0.00,weatherlink.com 1.10,2016-09-27 17:32:00,
2016-09-28 04:02:00,51.9,38.0,29.93,WNW,282,2.0,6.0,60,0.00,,,0.00,weatherlink.com 1.10,2016-09-27 18:02:00,
2016-09-28 04:17:00,51.6,38.0,29.94,West,281,2.0,4.0,60,0.00,,,0.00,weatherlink.com 1.10,2016-09-27 18:17:00,
2016-09-28 04:32:00,51.3,39.0,29.94,West,281,2.0,3.0,62,0.00,,,0.00,weatherlink.com 1.10,2016-09-27 18:32:00,
2016-09-28 04:47:00,51.4,39.0,29.94,West,281,1.0,3.0,62,0.00,,,0.00,weatherlink.com 1.10,2016-09-27 18:47:00,
2016-09-28 05:02:00,51.4,38.0,29.94,West,281,0.0,2.0,60,0.00,,,0.00,weatherlink.com 1.10,2016-09-27 19:02:00,
2016-09-28 05:17:00,51.3,38.0,29.94,West,281,0.0,0.0,61,0.00,,,0.00,weatherlink.com 1.10,2016-09-27 19:17:00,
2016-09-28 05:32:00,51.2,38.0,29.94,West,281,0.0,0.0,62,0.00,,,0.00,weatherlink.com 1.10,2016-09-27 19:32:00,
2016-09-28 05:47:00,51.0,38.0,29.95,West,281,0.0,0.0,62,0.00,,,0.00,weatherlink.com 1.10,2016-09-27 19:47:00,
2016-09-28 06:02:00,51.4,38.0,29.95,West,281,0.0,0.0,60,0.00,,,0.00,weatherlink.com 1.10,2016-09-27 20:02:00,
2016-09-28 06:32:00,52.2,38.0,29.96,West,281,4.0,4.0,59,0.00,,,0.00,weatherlink.com 1.10,2016-09-27 20:32:00,
2016-09-28 06:47:00,51.6,39.0,29.96,WNW,283,1.0,4.0,62,0.00,,,0.00,weatherlink.com 1.10,2016-09-27 20:47:00,
2016-09-28 07:17:00,54.6,40.0,29.97,WSW,248,2.0,5.0,58,0.00,,,0.00,weatherlink.com 1.10,2016-09-27 21:17:00,
2016-09-28 07:33:00,55.5,40.0,29.97,WNW,286,3.0,4.0,56,0.00,,,0.00,weatherlink.com 1.10,2016-09-27 21:33:00,
2016-09-28 07:47:00,56.6,40.0,29.98,WSW,254,2.0,6.0,55,0.00,,,0.00,weatherlink.com 1.10,2016-09-27 21:47:00,
2016-09-28 08:02:00,57.5,41.0,29.98,WSW,250,2.0,5.0,55,0.00,,,0.00,weatherlink.com 1.10,2016-09-27 22:02:00,
2016-09-28 08:17:00,58.5,42.0,29.98,SSW,211,2.0,4.0,54,0.00,,,0.00,weatherlink.com 1.10,2016-09-27 22:17:00,
2016-09-28 08:32:00,59.4,42.0,29.98,SSW,205,1.0,5.0,52,0.00,,,0.00,weatherlink.com 1.10,2016-09-27 22:32:00,
2016-09-28 08:47:00,60.2,41.0,29.98,SSE,159,1.0,7.0,50,0.00,,,0.00,weatherlink.com 1.10,2016-09-27 22:47:00,
2016-09-28 09:03:00,60.8,42.0,29.97,ENE,74,0.0,6.0,51,0.00,,,0.00,weatherlink.com 1.10,2016-09-27 23:03:00,
2016-09-28 09:33:00,61.9,43.0,29.97,SE,142,3.0,6.0,51,0.00,,,0.00,weatherlink.com 1.10,2016-09-27 23:33:00,
2016-09-28 09:48:00,63.0,44.0,29.97,SSW,197,3.0,5.0,50,0.00,,,0.00,weatherlink.com 1.10,2016-09-27 23:48:00,
2016-09-28 10:03:00,63.2,45.0,29.97,SSW,204,2.0,5.0,52,0.00,,,0.00,weatherlink.com 1.10,2016-09-28 00:03:00,
2016-09-28 10:18:00,63.7,43.0,29.96,SE,132,2.0,6.0,48,0.00,,,0.00,weatherlink.com 1.10,2016-09-28 00:18:00,
2016-09-28 10:34:00,64.9,45.0,29.96,ESE,114,4.0,7.0,48,0.00,,,0.00,weatherlink.com 1.10,2016-09-28 00:34:00,
2016-09-28 10:48:00,64.9,44.0,29.95,WNW,297,4.0,7.0,47,0.00,,,0.00,weatherlink.com 1.10,2016-09-28 00:48:00,
2016-09-28 11:18:00,65.9,44.0,29.95,NW,317,2.0,5.0,46,0.00,,,0.00,weatherlink.com 1.10,2016-09-28 01:18:00,
2016-09-28 11:33:00,67.5,43.0,29.95,South,175,3.0,6.0,42,0.00,,,0.00,weatherlink.com 1.10,2016-09-28 01:33:00,
2016-09-28 11:48:00,68.4,42.0,29.93,SE,141,3.0,6.0,39,0.00,,,0.00,weatherlink.com 1.10,2016-09-28 01:48:00,
2016-09-28 12:03:00,67.8,44.0,29.93,ENE,76,1.0,5.0,43,0.00,,,0.00,weatherlink.com 1.10,2016-09-28 02:03:00,
2016-09-28 12:18:00,68.0,46.0,29.93,ESE,112,2.0,6.0,45,0.00,,,0.00,weatherlink.com 1.10,2016-09-28 02:18:00,
2016-09-28 12:48:00,69.2,45.0,29.92,ENE,72,2.0,6.0,42,0.00,,,0.00,weatherlink.com 1.10,2016-09-28 02:48:00,
2016-09-28 13:03:00,69.0,46.0,29.91,ENE,69,1.0,5.0,44,0.00,,,0.00,weatherlink.com 1.10,2016-09-28 03:03:00,
2016-09-28 13:18:00,68.2,45.0,29.91,East,82,5.0,9.0,43,0.00,,,0.00,weatherlink.com 1.10,2016-09-28 03:18:00,
2016-09-28 13:33:00,68.4,45.0,29.89,ESE,106,3.0,8.0,43,0.00,,,0.00,weatherlink.com 1.10,2016-09-28 03:33:00,
2016-09-28 13:49:00,68.5,44.0,29.89,East,84,4.0,8.0,42,0.00,,,0.00,weatherlink.com 1.10,2016-09-28 03:49:00,
2016-09-28 14:03:00,67.8,44.0,29.89,ENE,72,2.0,10.0,43,0.00,,,0.00,weatherlink.com 1.10,2016-09-28 04:03:00,
2016-09-28 14:18:00,68.0,46.0,29.88,NE,53,1.0,10.0,46,0.00,,,0.00,weatherlink.com 1.10,2016-09-28 04:18:00,
2016-09-28 14:33:00,68.2,48.0,29.87,ESE,116,1.0,8.0,48,0.00,,,0.00,weatherlink.com 1.10,2016-09-28 04:33:00,
2016-09-28 14:48:00,68.5,48.0,29.86,SSE,148,4.0,7.0,49,0.00,,,0.00,weatherlink.com 1.10,2016-09-28 04:48:00,
2016-09-28 15:18:00,67.3,48.0,29.86,East,88,5.0,7.0,50,0.00,,,0.00,weatherlink.com 1.10,2016-09-28 05:18:00,
2016-09-28 15:33:00,66.3,46.0,29.86,ENE,77,3.0,10.0,49,0.00,,,0.00,weatherlink.com 1.10,2016-09-28 05:33:00,
2016-09-28 15:49:00,65.8,48.0,29.85,East,85,5.0,10.0,53,0.00,,,0.00,weatherlink.com 1.10,2016-09-28 05:49:00,
2016-09-28 16:03:00,66.2,49.0,29.85,NE,50,5.0,5.0,55,0.00,,,0.00,weatherlink.com 1.10,2016-09-28 06:03:00,
2016-09-28 16:18:00,65.8,48.0,29.84,ENE,75,1.0,7.0,53,0.00,,,0.00,weatherlink.com 1.10,2016-09-28 06:18:00,
2016-09-28 16:34:00,65.1,49.0,29.85,NE,34,1.0,7.0,56,0.00,,,0.00,weatherlink.com 1.10,2016-09-28 06:34:00,
2016-09-28 16:49:00,64.6,48.0,29.85,East,89,2.0,6.0,56,0.00,,,0.00,weatherlink.com 1.10,2016-09-28 06:49:00,
2016-09-28 17:04:00,64.0,49.0,29.84,NW,315,2.0,5.0,58,0.00,,,0.00,weatherlink.com 1.10,2016-09-28 07:04:00,
2016-09-28 17:19:00,63.7,48.0,29.84,ESE,104,2.0,5.0,58,0.00,,,0.00,weatherlink.com 1.10,2016-09-28 07:19:00,
2016-09-28 17:34:00,63.5,48.0,29.85,NNW,347,2.0,2.0,57,0.00,,,0.00,weatherlink.com 1.10,2016-09-28 07:34:00,
2016-09-28 17:49:00,62.9,48.0,29.85,SSE,164,0.0,3.0,59,0.00,,,0.00,weatherlink.com 1.10,2016-09-28 07:49:00,
2016-09-28 18:04:00,62.2,48.0,29.86,NNW,337,0.0,2.0,60,0.00,,,0.00,weatherlink.com 1.10,2016-09-28 08:04:00,